Aérodrome :
LOGIN :

S'inscrire | Disclaimer

   EN    FR    IT 

 










Légende :    VFR   VFR Marginal   IFR   IFR Intensif   IFR Très Intensif
Visi : 
Plafond : 
>= 8 km
>= 3000ft
5 à 8 km
1000 à 3000 ft
1500m à 5 km
500 à 1000 ft
800 à 1500m
200 à 500 ft
< 800m
< 200 ft
Symboles :   Orages  Brouillard  Fortes neiges  Fortes précipitations  Vent > 20 kt
SIGMETs :   Divers  Orages  Givrage  Turbulence  Onde Orograph.  Cendres Volcan.







- Altitude de l'aérodrome : 121 ft
- Code IATA : HUY
- Voir les cartes d'approche


EGNJ - Humberside

DERNIER METAR :
  • 250020Z AUTO 12004KT 1400 BR FEW002/// 14/13 Q1019

METARs EXPIRÉS :
  • 242350Z AUTO VRB03KT 1600 HZ FEW003/// 14/13 Q1019
  • 242320Z AUTO 12006KT 2000 HZ NCD 14/13 Q1020
  • 242250Z AUTO 12006KT 2000 HZ NCD 14/13 Q1020
  • 242220Z AUTO 11007KT 2200 HZ NCD 15/14 Q1020
  • 242150Z AUTO 12007KT 2100 HZ NCD 14/14 Q1020

TAF AMD TAF EGNJ
Valide du 25 à 00h jusqu'au 25 à 09h UTC


250027Z 2500/2509 11008KT 9999 FEW030
TEMPO 2500/2506 1400 RADZ BR
TEMPO 2506/2509 4000 RADZ
ATIS : +44 1652 682 020
Pas de NOTAMs connus pour ce terrain.



MET'MAP, la Météo Aéronautique d'un coup d'oeil ! - Copyright ORBIFLY Décembre 2007 - Disclaimer

ORBIFLY MET'MAP TEAM :

Programmation & Développement : Alexandra Zaïnal
Conception & Développement : Baudouin d'Aumeries
Co-Programmation & Développement : Marc-Olivier Méhu
Soutien technique & logistique : Manuel Goepfert

Contact : metmap@orbifly.com




SOURCES & CREDITS :

   NOAA